| time (UTC) | temp C | wind direction | speed KPH | gust KPH | rain 1hr cm | rain 24hr cm | rain mn cm | humidity % | barometer mb |
| 20260509053050 | 16 | 286 | 8.0 | 17.7 | 0.00 | 0.28 | 0.08 | 85 | 1001.4 |
| 20260509051535 | 16 | 275 | 8.0 | 14.5 | 0.00 | 0.28 | 0.08 | 85 | 1001.2 |
| 20260509050034 | 16 | 292 | 6.4 | 14.5 | 0.00 | 0.28 | 0.08 | 84 | 1001.3 |
| 20260509044534 | 16 | 259 | 8.0 | 17.7 | 0.00 | 0.28 | 0.08 | 84 | 1001.2 |
| 20260509043041 | 17 | 275 | 11.3 | 19.3 | 0.00 | 0.28 | 0.08 | 83 | 1001.2 |
| 20260509041534 | 17 | 299 | 4.8 | 17.7 | 0.00 | 0.28 | 0.08 | 83 | 1001.3 |
| 20260509040034 | 17 | 279 | 9.7 | 20.9 | 0.00 | 0.28 | 0.08 | 80 | 1001.3 |
| 20260509034528 | 17 | 280 | 9.7 | 19.3 | 0.00 | 0.28 | 0.08 | 80 | 1001.5 |
| 20260509033028 | 18 | 305 | 11.3 | 25.7 | 0.00 | 0.28 | 0.08 | 80 | 1001.7 |
| 20260509031527 | 18 | 281 | 11.3 | 24.1 | 0.00 | 0.28 | 0.08 | 79 | 1001.9 |
| 20260509030026 | 18 | 279 | 9.7 | 19.3 | 0.00 | 0.28 | 0.08 | 79 | 1002.0 |
| 20260509024526 | 18 | 290 | 8.0 | 25.7 | 0.00 | 0.28 | 0.08 | 78 | 1001.9 |
| 20260509023026 | 18 | 284 | 12.9 | 22.5 | 0.00 | 0.28 | 0.08 | 77 | 1001.9 |
| 20260509021525 | 20 | 279 | 12.9 | 24.1 | 0.00 | 0.28 | 0.08 | 72 | 1001.8 |
| 20260509020024 | 19 | 281 | 6.4 | 17.7 | 0.00 | 0.28 | 0.08 | 75 | 1001.7 |
| 20260509014527 | 20 | 288 | 11.3 | 24.1 | 0.00 | 0.28 | 0.08 | 72 | 1001.9 |
| 20260509013022 | 19 | 297 | 9.7 | 22.5 | 0.00 | 0.28 | 0.08 | 76 | 1002.0 |
| 20260509011519 | 18 | 254 | 9.7 | 17.7 | 0.00 | 0.28 | 0.08 | 75 | 1002.2 |
| 20260509010025 | 20 | 277 | 11.3 | 25.7 | 0.00 | 0.28 | 0.08 | 74 | 1002.3 |
| 20260509004521 | 19 | 273 | 14.5 | 22.5 | 0.00 | 0.28 | 0.08 | 74 | 1002.6 |
| 20260509003014 | 19 | 302 | 9.7 | 25.7 | 0.00 | 0.28 | 0.08 | 77 | 1002.8 |
| 20260509001509 | 18 | 271 | 6.4 | 25.7 | 0.00 | 0.28 | 0.08 | 78 | 1003.2 |
| 20260509000004 | 19 | 333 | 14.5 | 27.4 | 0.00 | 0.28 | 0.08 | 78 | 1003.4 |
| 20260508234501 | 18 | 253 | 16.1 | 25.7 | 0.00 | 0.28 | 0.08 | 80 | 1003.8 |
| 20260508233115 | 18 | 311 | 12.9 | 22.5 | 0.00 | 0.28 | 0.08 | 81 | 1004.1 |
| 20260508231600 | 19 | 297 | 6.4 | 19.3 | 0.00 | 0.28 | 0.08 | 82 | 1004.1 |
| 20260508230055 | 18 | 265 | 11.3 | 22.5 | 0.00 | 0.28 | 0.08 | 81 | 1004.3 |
| 20260508224556 | 18 | 284 | 9.7 | 22.5 | 0.00 | 0.28 | 0.08 | 82 | 1004.4 |
| 20260508223050 | 18 | 355 | 8.0 | 20.9 | 0.00 | 0.28 | 0.08 | 84 | 1004.5 |
| 20260508221546 | 17 | 293 | 9.7 | 19.3 | 0.00 | 0.28 | 0.08 | 85 | 1004.5 |
| 20260508220050 | 17 | 312 | 4.8 | 17.7 | 0.00 | 0.28 | 0.08 | 85 | 1004.7 |
| 20260508214546 | 17 | 281 | 3.2 | 14.5 | 0.00 | 0.28 | 0.08 | 86 | 1004.7 |
| 20260508213042 | 17 | 312 | 9.7 | 17.7 | 0.00 | 0.28 | 0.08 | 86 | 1004.7 |
| 20260508211540 | 16 | 299 | 4.8 | 14.5 | 0.00 | 0.28 | 0.08 | 89 | 1004.6 |
| 20260508210037 | 16 | 267 | 6.4 | 14.5 | 0.00 | 0.28 | 0.08 | 91 | 1004.7 |
| 20260508204537 | 16 | 312 | 6.4 | 12.9 | 0.00 | 0.28 | 0.08 | 92 | 1004.7 |
| 20260508203034 | 15 | 321 | 3.2 | 9.7 | 0.00 | 0.28 | 0.08 | 92 | 1004.6 |
| 20260508201527 | 15 | 315 | 4.8 | 12.9 | 0.00 | 0.28 | 0.08 | 92 | 1004.5 |
| 20260508200032 | 15 | 319 | 0.0 | 6.4 | 0.03 | 0.28 | 0.08 | 92 | 1004.5 |
| 20260508194526 | 14 | 315 | 1.6 | 8.0 | 0.03 | 0.28 | 0.08 | 92 | 1004.4 |
| 20260508193026 | 14 | 320 | 1.6 | 8.0 | 0.03 | 0.28 | 0.08 | 92 | 1004.3 |
| 20260508191524 | 15 | 290 | 3.2 | 9.7 | 0.03 | 0.28 | 0.08 | 92 | 1004.3 |
| 20260508190024 | 15 | 285 | 4.8 | 19.3 | 0.00 | 0.25 | 0.05 | 93 | 1004.3 |
| 20260508184524 | 15 | 271 | 0.0 | 6.4 | 0.00 | 0.25 | 0.05 | 92 | 1004.1 |
| 20260508183023 | 15 | 274 | 3.2 | 9.7 | 0.00 | 0.25 | 0.05 | 92 | 1004.0 |
| 20260508181527 | 15 | 280 | 0.0 | 6.4 | 0.00 | 0.25 | 0.05 | 92 | 1004.0 |
| 20260508180020 | 15 | 292 | 0.0 | 4.8 | 0.00 | 0.25 | 0.05 | 92 | 1003.9 |
| 20260508174520 | 15 | 294 | 0.0 | 4.8 | 0.00 | 0.25 | 0.05 | 92 | 1003.9 |
| 20260508173019 | 15 | 279 | 1.6 | 9.7 | 0.00 | 0.25 | 0.05 | 92 | 1003.8 |
| 20260508171523 | 15 | 286 | 0.0 | 8.0 | 0.00 | 0.25 | 0.05 | 92 | 1003.9 |
| 20260508170019 | 15 | 306 | 0.0 | 0.0 | 0.00 | 0.25 | 0.05 | 92 | 1003.8 |
| 20260508164518 | 15 | 294 | 1.6 | 8.0 | 0.00 | 0.25 | 0.05 | 92 | 1003.8 |
| 20260508163017 | 15 | 275 | 0.0 | 6.4 | 0.00 | 0.25 | 0.05 | 92 | 1003.9 |
| 20260508161525 | 15 | 317 | 0.0 | 6.4 | 0.03 | 0.25 | 0.05 | 92 | 1004.0 |
| 20260508160012 | 15 | 298 | 0.0 | 4.8 | 0.03 | 0.25 | 0.05 | 92 | 1004.1 |
| 20260508154511 | 15 | 310 | 0.0 | 12.9 | 0.03 | 0.25 | 0.05 | 92 | 1004.0 |
| 20260508153017 | 15 | 319 | 4.8 | 16.1 | 0.03 | 0.25 | 0.05 | 92 | 1004.1 |
| 20260508151507 | 15 | 286 | 4.8 | 14.5 | 0.00 | 0.23 | 0.05 | 92 | 1004.3 |
| 20260508150010 | 15 | 283 | 3.2 | 11.3 | 0.00 | 0.23 | 0.05 | 92 | 1004.4 |
| 20260508144509 | 15 | 286 | 3.2 | 8.0 | 0.00 | 0.23 | 0.05 | 92 | 1004.4 |
| 20260508143005 | 15 | 300 | 0.0 | 12.9 | 0.00 | 0.23 | 0.05 | 92 | 1004.3 |
| 20260508141502 | 15 | 286 | 3.2 | 12.9 | 0.00 | 0.23 | 0.05 | 92 | 1004.5 |
| 20260508140119 | 15 | 309 | 1.6 | 8.0 | 0.00 | 0.23 | 0.05 | 92 | 1004.7 |
| 20260508134559 | 15 | 323 | 1.6 | 9.7 | 0.00 | 0.23 | 0.05 | 92 | 1004.8 |
| 20260508133104 | 15 | 317 | 3.2 | 9.7 | 0.00 | 0.23 | 0.05 | 92 | 1004.9 |
| 20260508131557 | 15 | 317 | 3.2 | 11.3 | 0.03 | 0.23 | 0.05 | 92 | 1004.9 |
| 20260508130055 | 15 | 317 | 3.2 | 12.9 | 0.05 | 0.23 | 0.05 | 92 | 1004.7 |
| 20260508124554 | 15 | 282 | 1.6 | 11.3 | 0.08 | 0.23 | 0.05 | 91 | 1005.0 |
| 20260508123052 | 15 | 297 | 4.8 | 12.9 | 0.08 | 0.23 | 0.05 | 91 | 1005.1 |
| 20260508121549 | 15 | 282 | 8.0 | 20.9 | 0.10 | 0.23 | 0.03 | 91 | 1005.5 |
| 20260508120051 | 15 | 257 | 11.3 | 19.3 | 0.15 | 0.20 | 0.00 | 90 | 1005.6 |
| 20260508114543 | 15 | 274 | 9.7 | 25.7 | 0.13 | 0.15 | 0.15 | 89 | 1005.8 |
| 20260508113040 | 16 | 272 | 11.3 | 29.0 | 0.13 | 0.15 | 0.15 | 89 | 1005.2 |
| 20260508111540 | 18 | 313 | 4.8 | 14.5 | 0.08 | 0.13 | 0.13 | 90 | 1005.0 |
| 20260508110036 | 18 | 333 | 9.7 | 24.1 | 0.00 | 0.05 | 0.05 | 90 | 1005.0 |
| 20260508104531 | 18 | 342 | 8.0 | 22.5 | 0.00 | 0.05 | 0.05 | 89 | 1005.4 |
| 20260508103041 | 18 | 334 | 8.0 | 22.5 | 0.00 | 0.05 | 0.05 | 88 | 1005.4 |
| 20260508101528 | 18 | 5 | 9.7 | 24.1 | 0.00 | 0.05 | 0.05 | 87 | 1005.5 |
| 20260508100032 | 18 | 10 | 9.7 | 19.3 | 0.00 | 0.05 | 0.05 | 87 | 1005.7 |
| 20260508094512 | 18 | 350 | 11.3 | 22.5 | 0.00 | 0.05 | 0.05 | 87 | 1005.9 |
| 20260508093012 | 18 | 355 | 9.7 | 17.7 | 0.00 | 0.05 | 0.05 | 86 | 1006.1 |
| 20260508091514 | 18 | 323 | 11.3 | 20.9 | 0.00 | 0.05 | 0.05 | 86 | 1006.3 |
| 20260508090009 | 18 | 5 | 8.0 | 17.7 | 0.00 | 0.05 | 0.05 | 86 | 1006.2 |
| 20260508084507 | 18 | 325 | 8.0 | 17.7 | 0.00 | 0.05 | 0.05 | 86 | 1006.7 |
| 20260508083105 | 18 | 360 | 6.4 | 22.5 | 0.00 | 0.05 | 0.05 | 86 | 1006.8 |
| 20260508081504 | 18 | 331 | 6.4 | 19.3 | 0.03 | 0.05 | 0.05 | 86 | 1007.0 |
| 20260508080003 | 18 | 347 | 6.4 | 22.5 | 0.03 | 0.05 | 0.05 | 87 | 1007.2 |
| 20260508074502 | 17 | 355 | 9.7 | 22.5 | 0.03 | 0.05 | 0.05 | 88 | 1007.5 |
| 20260508073001 | 17 | 355 | 11.3 | 29.0 | 0.03 | 0.05 | 0.05 | 88 | 1007.9 |
| 20260508071501 | 18 | 318 | 8.0 | 24.1 | 0.00 | 0.03 | 0.03 | 87 | 1007.7 |
| 20260508070100 | 18 | 344 | 11.3 | 20.9 | 0.00 | 0.03 | 0.03 | 86 | 1007.6 |
| 20260508064559 | 18 | 348 | 11.3 | 22.5 | 0.00 | 0.03 | 0.03 | 87 | 1007.4 |
| 20260508063100 | 18 | 355 | 9.7 | 24.1 | 0.03 | 0.03 | 0.03 | 87 | 1007.1 |
| 20260508061605 | 17 | 54 | 8.0 | 24.1 | 0.03 | 0.03 | 0.03 | 88 | 1007.2 |
| 20260508060120 | 17 | 343 | 9.7 | 17.7 | 0.03 | 0.03 | 0.03 | 88 | 1007.5 |
| 20260508054640 | 17 | 329 | 8.0 | 22.5 | 0.03 | 0.03 | 0.03 | 88 | 1007.7 |